Time;durP1;ratioP1;P1;durP2;ratioP2;P2;SDS_P1;SDS_P2;PMS_P1;PMS_P2;Temp;Humidity;BMP_temperature;BMP_pressure;BME280_temperature;BME280_humidity;BME280_pressure;Samples;Min_cycle;Max_cycle;Signal;HPM_P1;HPM_P2
2021/07/01 00:00:40;;;;;;;4.17;3.75;;;;;;;22.29;67.37;98990.24;1685150;84;21479;-56
2021/07/01 00:03:06;;;;;;;5.25;3.62;;;;;;;22.27;67.43;98986.29;1682700;84;21589;-56
2021/07/01 00:05:33;;;;;;;2.77;2.42;;;;;;;22.25;67.49;98979.59;1746247;80;21054;-57
2021/07/01 00:07:59;;;;;;;3.83;1.95;;;;;;;22.26;67.67;98981.83;1747816;79;21445;-56
2021/07/01 00:10:27;;;;;;;2.35;2.25;;;;;;;22.24;67.88;98986.10;1747124;81;21438;-56
2021/07/01 00:12:54;;;;;;;2.80;2.70;;;;;;;22.22;68.13;98979.92;1752856;81;21710;-56
2021/07/01 00:15:25;;;;;;;3.22;3.00;;;;;;;22.19;68.27;98973.93;1750813;80;22246;-56
2021/07/01 00:17:52;;;;;;;4.55;3.35;;;;;;;22.16;68.38;98964.66;1751039;79;21457;-55
2021/07/01 00:20:19;;;;;;;4.70;4.30;;;;;;;22.14;68.46;98968.06;1752602;81;21560;-57
2021/07/01 00:22:45;;;;;;;4.53;4.22;;;;;;;22.09;68.53;98954.88;1750476;81;22285;-57
2021/07/01 00:25:12;;;;;;;2.90;2.70;;;;;;;22.04;68.61;98938.05;1747175;80;21132;-56
2021/07/01 00:27:39;;;;;;;3.72;3.02;;;;;;;22.00;68.71;98932.58;1749956;81;21074;-56
2021/07/01 00:30:07;;;;;;;7.37;2.45;;;;;;;21.96;68.92;98913.84;1751409;81;21117;-57
2021/07/01 00:32:36;;;;;;;2.60;2.40;;;;;;;21.90;69.07;98916.24;1747251;81;21046;-56
2021/07/01 00:35:04;;;;;;;3.62;3.33;;;;;;;21.86;69.28;98909.36;1749390;79;21088;-57
2021/07/01 00:37:32;;;;;;;4.40;4.00;;;;;;;21.82;69.38;98905.77;1749147;81;22458;-56
2021/07/01 00:40:00;;;;;;;5.83;4.60;;;;;;;21.77;69.42;98904.91;1751276;81;21049;-55
2021/07/01 00:42:26;;;;;;;4.53;4.30;;;;;;;21.71;69.46;98906.91;1750370;81;21619;-55
2021/07/01 00:44:53;;;;;;;5.65;5.25;;;;;;;21.67;69.54;98913.76;1750649;81;21070;-56
2021/07/01 00:47:19;;;;;;;5.30;5.00;;;;;;;21.62;69.62;98926.20;1748854;81;21166;-56
2021/07/01 00:49:45;;;;;;;4.03;3.77;;;;;;;21.56;69.76;98929.61;1750216;81;21180;-55
2021/07/01 00:52:12;;;;;;;6.50;4.10;;;;;;;21.50;69.87;98935.23;1754425;80;21103;-56
2021/07/01 00:54:38;;;;;;;3.15;2.92;;;;;;;21.45;70.01;98934.34;1746029;81;21058;-55
2021/07/01 00:57:06;;;;;;;5.03;3.83;;;;;;;21.42;70.20;98935.19;1734918;81;21069;-56
2021/07/01 00:59:33;;;;;;;3.40;3.12;;;;;;;21.39;70.36;98936.37;1749757;81;21101;-56
2021/07/01 01:02:00;;;;;;;4.53;3.95;;;;;;;21.37;70.48;98932.06;1751124;79;21145;-56
2021/07/01 01:04:27;;;;;;;5.42;4.72;;;;;;;21.37;70.58;98927.45;1752321;81;20935;-56
2021/07/01 01:06:54;;;;;;;5.35;5.10;;;;;;;21.36;70.77;98919.39;1751431;81;21098;-56
2021/07/01 01:09:21;;;;;;;5.65;5.25;;;;;;;21.34;70.81;98919.58;1749713;81;21031;-55
2021/07/01 01:11:47;;;;;;;4.85;4.55;;;;;;;21.31;70.87;98913.56;1749994;81;21069;-56
2021/07/01 01:14:15;;;;;;;4.47;3.85;;;;;;;21.26;70.95;98908.59;1750782;81;21129;-56
2021/07/01 01:16:47;;;;;;;4.17;3.98;;;;;;;21.24;71.04;98898.81;1754117;81;21133;-56
2021/07/01 01:19:13;;;;;;;4.53;4.22;;;;;;;21.19;71.19;98887.47;1749040;81;21066;-55
2021/07/01 01:21:46;;;;;;;5.10;3.92;;;;;;;21.17;71.29;98887.66;1747001;80;21153;-54
2021/07/01 01:24:12;;;;;;;4.40;3.90;;;;;;;21.13;71.45;98881.61;1733176;81;21425;-54
2021/07/01 01:26:39;;;;;;;6.30;4.53;;;;;;;21.10;71.59;98877.81;1747541;81;22176;-56
2021/07/01 01:29:06;;;;;;;6.60;5.95;;;;;;;21.10;71.71;98870.11;1753945;79;22185;-55
2021/07/01 01:31:36;;;;;;;8.78;5.35;;;;;;;21.08;71.79;98859.86;1748457;80;21537;-57
2021/07/01 01:34:01;;;;;;;4.45;4.15;;;;;;;21.04;71.90;98852.98;1732782;81;21094;-54
2021/07/01 01:36:28;;;;;;;4.70;4.20;;;;;;;21.00;71.97;98850.23;1754990;80;21474;-53
2021/07/01 01:38:55;;;;;;;4.47;4.17;;;;;;;20.97;72.02;98839.10;1731116;80;21552;-53
2021/07/01 01:41:35;;;;;;;3.55;3.33;;;;;;;20.93;72.08;98837.69;1755939;80;21019;-53
2021/07/01 01:44:01;;;;;;;5.37;4.87;;;;;;;20.90;72.16;98836.67;1761122;80;21074;-54
2021/07/01 01:46:36;;;;;;;5.85;4.30;;;;;;;20.87;72.36;98836.98;1755835;80;21061;-53
2021/07/01 01:49:04;;;;;;;4.40;4.20;;;;;;;20.86;72.50;98833.89;1757949;80;20950;-53
2021/07/01 01:51:31;;;;;;;4.53;4.10;;;;;;;20.84;72.65;98826.34;1758417;80;21561;-54
2021/07/01 01:53:59;;;;;;;7.42;5.25;;;;;;;20.84;72.75;98824.16;1757970;80;21073;-54
2021/07/01 01:56:36;;;;;;;5.50;5.12;;;;;;;20.83;72.83;98824.66;1758926;79;21045;-53
2021/07/01 01:58:55;;;;;;;6.78;6.22;;;;;;;20.83;72.86;98819.70;1759931;80;21393;-53
2021/07/01 02:01:40;;;;;;;6.03;5.60;;;;;;;20.81;72.93;98813.52;1757229;80;21081;-53
2021/07/01 02:04:07;;;;;;;4.30;4.05;;;;;;;20.80;72.97;98808.56;1696106;84;22035;-53
2021/07/01 02:06:37;;;;;;;5.35;4.40;;;;;;;20.78;73.00;98813.33;1758418;80;21017;-53
2021/07/01 02:09:04;;;;;;;4.30;4.08;;;;;;;20.75;73.09;98808.20;1751461;80;22355;-53
2021/07/01 02:11:34;;;;;;;7.42;4.50;;;;;;;20.75;73.19;98811.80;1757770;80;20899;-53
2021/07/01 02:14:02;;;;;;;8.15;4.35;;;;;;;20.75;73.20;98809.57;1692210;84;20997;-54
2021/07/01 02:16:36;;;;;;;5.67;5.35;;;;;;;20.76;73.26;98809.38;1714554;80;21519;-54
2021/07/01 02:19:03;;;;;;;6.40;5.80;;;;;;;20.77;73.22;98815.20;1756101;80;21413;-54
2021/07/01 02:21:29;;;;;;;7.17;6.45;;;;;;;20.76;73.23;98816.22;1756936;80;21916;-54
2021/07/01 02:23:56;;;;;;;7.35;6.65;;;;;;;20.75;73.24;98820.00;1757774;79;20934;-54
2021/07/01 02:26:23;;;;;;;6.70;6.20;;;;;;;20.74;73.23;98826.48;1734752;80;21362;-54
2021/07/01 02:28:49;;;;;;;4.75;4.42;;;;;;;20.73;73.24;98832.97;1729204;80;21162;-54
2021/07/01 02:31:23;;;;;;;5.83;5.30;;;;;;;20.73;73.27;98838.95;1751890;80;21168;-56
2021/07/01 02:33:50;;;;;;;5.12;4.67;;;;;;;20.74;73.32;98840.66;1755257;79;21077;-53
2021/07/01 02:36:18;;;;;;;5.30;4.53;;;;;;;20.76;73.31;98849.55;1757991;80;20907;-53
2021/07/01 02:38:58;;;;;;;5.87;4.75;;;;;;;20.76;73.39;98848.17;1700019;80;20923;-53
2021/07/01 02:41:25;;;;;;;4.55;4.33;;;;;;;20.77;73.44;98846.66;1751432;79;21096;-53
2021/07/01 02:43:52;;;;;;;6.28;5.92;;;;;;;20.80;73.49;98857.79;1747645;80;21088;-54
2021/07/01 02:46:39;;;;;;;6.87;6.35;;;;;;;20.81;73.56;98859.52;1687478;84;21151;-54
2021/07/01 02:49:07;;;;;;;7.25;6.55;;;;;;;20.83;73.59;98848.42;1689294;84;21066;-53
2021/07/01 02:51:34;;;;;;;6.05;5.55;;;;;;;20.84;73.57;98855.06;1749259;80;21125;-53
2021/07/01 02:54:01;;;;;;;5.97;4.53;;;;;;;20.86;73.61;98854.91;1748906;80;21126;-53
2021/07/01 02:56:39;;;;;;;5.22;4.55;;;;;;;20.88;73.60;98858.36;1744899;81;21125;-53
2021/07/01 02:58:57;;;;;;;5.37;5.08;;;;;;;20.89;73.62;98859.56;1757179;80;21425;-53
2021/07/01 03:01:43;;;;;;;4.40;4.20;;;;;;;20.90;73.59;98861.28;1672649;83;21105;-53
2021/07/01 03:04:12;;;;;;;7.12;4.70;;;;;;;20.91;73.65;98864.38;1657066;83;21148;-53
2021/07/01 03:06:38;;;;;;;4.25;4.05;;;;;;;20.94;73.68;98879.08;1662658;82;22813;-53
2021/07/01 03:09:05;;;;;;;6.30;4.35;;;;;;;20.99;73.73;98887.68;1753279;79;21006;-52
2021/07/01 03:11:32;;;;;;;5.83;5.42;;;;;;;21.01;73.76;98908.05;1749658;81;21034;-54
2021/07/01 03:13:59;;;;;;;5.72;5.22;;;;;;;21.02;73.87;98937.09;1753102;81;22958;-53
2021/07/01 03:16:26;;;;;;;5.50;5.10;;;;;;;21.03;73.98;98950.62;1754462;81;21635;-52
2021/07/01 03:18:53;;;;;;;5.08;4.87;;;;;;;21.04;73.98;98945.50;1754683;79;21447;-53
2021/07/01 03:21:29;;;;;;;6.30;5.85;;;;;;;21.06;74.11;98930.30;1741360;81;21061;-53
2021/07/01 03:23:58;;;;;;;6.10;5.62;;;;;;;21.08;74.31;98948.28;1747912;81;21054;-53
2021/07/01 03:26:25;;;;;;;4.05;3.85;;;;;;;21.12;74.58;98961.98;1749022;80;21206;-53
2021/07/01 03:28:52;;;;;;;5.15;4.85;;;;;;;21.18;74.82;98959.67;1751302;79;21304;-54
2021/07/01 03:31:20;;;;;;;4.65;4.25;;;;;;;21.23;74.91;98955.42;1746778;80;21153;-54
2021/07/01 03:33:46;;;;;;;4.87;4.58;;;;;;;21.28;74.91;98953.56;1750044;81;21073;-54
2021/07/01 03:36:13;;;;;;;5.00;4.60;;;;;;;21.32;75.01;98957.20;1750334;80;21066;-54
2021/07/01 03:38:44;;;;;;;8.98;5.10;;;;;;;21.38;75.04;98962.53;1717915;80;21140;-54
2021/07/01 03:41:12;;;;;;;6.58;5.87;;;;;;;21.41;75.08;98960.84;1757174;80;21610;-55
2021/07/01 03:43:46;;;;;;;6.22;5.85;;;;;;;21.44;75.07;98963.24;1753538;80;21536;-54
2021/07/01 03:46:10;;;;;;;5.03;3.98;;;;;;;21.45;75.09;98958.12;1755234;80;21596;-54
2021/07/01 03:48:37;;;;;;;4.40;4.17;;;;;;;21.49;74.92;98959.53;1732106;80;20907;-54
2021/07/01 03:51:24;;;;;;;3.90;3.60;;;;;;;21.50;74.72;98964.84;1751494;80;21050;-54
2021/07/01 03:53:52;;;;;;;3.90;3.70;;;;;;;21.52;74.67;98964.15;1758822;80;21081;-55
2021/07/01 03:56:19;;;;;;;4.05;3.85;;;;;;;21.53;74.57;98959.53;1730449;80;21058;-53
2021/07/01 03:58:46;;;;;;;3.75;3.22;;;;;;;21.56;74.49;98958.36;1752686;80;21105;-53
2021/07/01 04:01:31;;;;;;;4.60;4.20;;;;;;;21.59;74.52;98964.38;1761374;80;21072;-54
2021/07/01 04:03:57;;;;;;;4.90;3.52;;;;;;;21.62;74.53;98962.67;1752534;79;21137;-54
2021/07/01 04:06:25;;;;;;;4.83;4.42;;;;;;;21.66;74.58;98961.33;1759842;80;21081;-52
2021/07/01 04:08:52;;;;;;;5.53;4.58;;;;;;;21.70;74.45;98969.55;1759388;80;22900;-53
2021/07/01 04:11:18;;;;;;;4.17;3.80;;;;;;;21.72;74.36;98968.03;1763045;80;21077;-54
2021/07/01 04:13:44;;;;;;;2.83;2.72;;;;;;;21.72;74.26;98959.30;1751724;80;20923;-53
2021/07/01 04:16:15;;;;;;;3.42;3.12;;;;;;;21.74;74.21;98962.75;1698873;80;21050;-53
2021/07/01 04:19:01;;;;;;;2.50;2.40;;;;;;;21.76;74.19;98962.08;1751586;80;21090;-54
2021/07/01 04:21:46;;;;;;;2.70;2.50;;;;;;;21.78;74.22;98952.30;1754648;79;21603;-54
2021/07/01 04:24:17;;;;;;;3.65;3.08;;;;;;;21.80;74.27;98947.02;1722091;79;21792;-53
2021/07/01 04:26:46;;;;;;;3.35;2.58;;;;;;;21.82;74.24;98945.48;1752643;80;20864;-55
2021/07/01 04:29:14;;;;;;;2.87;2.58;;;;;;;21.87;74.13;98945.84;1752289;80;21110;-54
2021/07/01 04:31:41;;;;;;;3.35;2.62;;;;;;;21.92;73.91;98948.09;1753894;80;21048;-54
2021/07/01 04:34:08;;;;;;;2.98;2.72;;;;;;;21.94;73.69;98952.40;1752048;79;21107;-54
2021/07/01 04:36:34;;;;;;;2.85;2.37;;;;;;;21.96;73.53;98959.91;1754257;80;21104;-54
2021/07/01 04:39:03;;;;;;;2.00;1.65;;;;;;;21.99;73.32;98966.98;1755210;80;21026;-54
2021/07/01 04:41:31;;;;;;;3.98;1.90;;;;;;;21.99;73.24;98971.10;1750679;79;21041;-53
2021/07/01 04:43:58;;;;;;;2.33;2.17;;;;;;;22.01;73.22;98971.80;1756405;80;20899;-54
2021/07/01 04:46:26;;;;;;;3.05;2.05;;;;;;;22.03;73.23;98983.47;1735612;80;22246;-54
2021/07/01 04:51:22;;;;;;;4.10;2.85;;;;;;;22.11;73.24;98998.06;1783001;78;28157;-53
2021/07/01 04:53:59;;;;;;;2.98;2.77;;;;;;;22.08;73.11;98998.89;1677447;83;21481;-54
2021/07/01 04:56:45;;;;;;;3.42;3.22;;;;;;;22.09;73.06;98991.02;1756786;80;21725;-53
2021/07/01 04:59:17;;;;;;;3.52;3.22;;;;;;;22.12;73.04;98998.89;1753371;79;21164;-52
2021/07/01 05:01:49;;;;;;;3.42;2.70;;;;;;;22.13;72.96;98993.75;1708255;80;20962;-53
2021/07/01 05:04:35;;;;;;;2.87;2.67;;;;;;;22.15;72.86;98988.97;1684482;83;21001;-51
2021/07/01 05:07:03;;;;;;;2.83;2.62;;;;;;;22.17;72.92;98988.30;1662851;83;20957;-57
2021/07/01 05:09:30;;;;;;;3.83;2.25;;;;;;;22.21;72.95;98992.41;1694129;80;21097;-54
2021/07/01 05:11:59;;;;;;;4.22;2.58;;;;;;;22.24;72.99;98999.81;1758896;80;20903;-54
2021/07/01 05:14:27;;;;;;;6.85;3.90;;;;;;;22.31;72.90;99004.11;1733970;80;21065;-53
2021/07/01 05:16:54;;;;;;;4.62;2.67;;;;;;;22.39;72.88;99000.52;1754622;80;21069;-54
2021/07/01 05:19:20;;;;;;;4.25;3.85;;;;;;;22.46;72.70;98993.34;1755603;80;21262;-54
2021/07/01 05:21:54;;;;;;;;;;;;;;;22.53;72.50;98994.42;1761101;80;21146;-54
2021/07/01 05:24:37;;;;;;;4.40;3.33;;;;;;;22.58;72.21;98992.88;1653319;84;20199;-53
2021/07/01 05:27:14;;;;;;;3.92;3.67;;;;;;;22.63;72.11;98995.09;1728901;80;21696;-54
2021/07/01 05:29:59;;;;;;;3.72;3.42;;;;;;;22.69;71.86;98989.47;1760394;80;21034;-54
2021/07/01 05:32:45;;;;;;;2.85;2.55;;;;;;;22.74;71.77;98998.93;1754513;80;21041;-53
2021/07/01 05:35:16;;;;;;;3.35;2.80;;;;;;;22.80;71.62;99006.47;1754661;80;21825;-53
2021/07/01 05:37:44;;;;;;;3.45;3.00;;;;;;;22.86;71.62;99000.84;1758963;80;21089;-52
2021/07/01 05:40:15;;;;;;;3.17;3.00;;;;;;;22.93;71.35;99010.11;1762755;80;21055;-56
2021/07/01 05:42:40;;;;;;;3.72;3.42;;;;;;;22.98;71.15;99010.44;1742286;80;21089;-56
2021/07/01 05:45:08;;;;;;;6.15;4.10;;;;;;;23.01;70.93;99012.34;1739180;81;21053;-57
2021/07/01 05:47:36;;;;;;;4.72;4.42;;;;;;;23.06;70.87;99010.95;1733202;81;21120;-55
2021/07/01 05:50:05;;;;;;;4.87;3.85;;;;;;;23.10;70.65;99008.23;1729806;81;21424;-55
2021/07/01 05:52:33;;;;;;;3.95;3.62;;;;;;;23.11;70.60;99005.31;1722990;81;21113;-53
2021/07/01 05:54:59;;;;;;;3.75;3.17;;;;;;;23.16;70.27;99002.04;1720656;81;21102;-53
2021/07/01 05:57:30;;;;;;;5.03;3.47;;;;;;;23.20;70.41;99004.80;1719527;81;21121;-53
2021/07/01 05:59:56;;;;;;;3.33;3.02;;;;;;;23.27;70.36;99006.68;1715347;81;21519;-53
2021/07/01 06:02:23;;;;;;;9.05;4.35;;;;;;;23.36;70.43;99011.14;1722473;81;21060;-57
2021/07/01 06:04:49;;;;;;;6.87;4.70;;;;;;;23.47;70.54;99004.44;1715725;81;21122;-53
2021/07/01 06:07:36;;;;;;;7.97;3.60;;;;;;;23.60;69.98;99001.17;1633387;85;21144;-55
2021/07/01 06:10:06;;;;;;;9.00;3.45;;;;;;;23.72;69.83;98997.04;1631170;85;21074;-55
2021/07/01 06:12:33;;;;;;;4.03;3.60;;;;;;;23.82;69.31;99000.41;1664724;81;21151;-58
2021/07/01 06:15:00;;;;;;;5.58;3.47;;;;;;;23.89;68.85;98995.95;1722713;81;21045;-57
2021/07/01 06:17:27;;;;;;;7.90;3.62;;;;;;;23.95;68.06;98995.75;1680447;83;21137;-56
2021/07/01 06:19:54;;;;;;;6.40;3.60;;;;;;;23.99;68.03;98991.59;1676923;83;21149;-55
2021/07/01 06:22:21;;;;;;;4.28;3.80;;;;;;;24.04;67.99;99002.94;1717730;81;21082;-54
2021/07/01 06:24:53;;;;;;;7.37;4.08;;;;;;;24.08;67.94;99006.52;1720546;81;22325;-55
2021/07/01 06:27:22;;;;;;;12.10;3.98;;;;;;;24.13;67.78;99005.48;1717236;81;21006;-55
2021/07/01 06:29:47;;;;;;;4.20;3.83;;;;;;;24.17;67.57;99003.22;1716492;81;21096;-56
2021/07/01 06:32:13;;;;;;;4.85;3.05;;;;;;;24.20;67.71;99003.39;1717041;81;21073;-55
2021/07/01 06:34:41;;;;;;;4.08;3.67;;;;;;;24.23;67.51;99005.83;1719113;81;21097;-56
2021/07/01 06:37:08;;;;;;;4.80;2.80;;;;;;;24.29;67.47;99006.48;1664852;84;21158;-56
2021/07/01 06:39:53;;;;;;;6.12;2.42;;;;;;;24.32;67.21;99005.61;1713049;81;21176;-54
2021/07/01 06:42:54;;;;;;;6.10;3.42;;;;;;;24.36;66.34;99008.33;1658805;81;21368;-56
2021/07/01 06:45:22;;;;;;;12.05;4.30;;;;;;;24.42;66.67;99005.36;1653063;82;21091;-56
2021/07/01 06:48:07;;;;;;;3.37;3.10;;;;;;;24.46;66.41;99009.48;1721981;81;22802;-56
2021/07/01 06:50:41;;;;;;;;;;;;;;;24.49;66.23;99015.49;1671661;81;21137;-56
2021/07/01 06:53:27;;;;;;;4.92;2.83;;;;;;;24.50;65.91;99011.67;1722424;81;20282;-56
2021/07/01 06:55:56;;;;;;;4.22;3.27;;;;;;;24.51;65.90;99005.14;1721624;81;21069;-57
2021/07/01 06:58:24;;;;;;;2.55;2.37;;;;;;;24.55;65.88;99008.41;1724461;81;21018;-55
2021/07/01 07:00:50;;;;;;;2.98;2.42;;;;;;;24.57;65.57;99004.96;1721684;81;21077;-55
2021/07/01 07:03:18;;;;;;;7.85;3.62;;;;;;;24.59;65.26;98995.13;1726517;81;21108;-57
2021/07/01 07:05:49;;;;;;;7.67;2.62;;;;;;;24.62;65.28;99000.27;1725603;81;21038;-57
2021/07/01 07:08:15;;;;;;;5.20;3.75;;;;;;;24.63;65.30;99000.09;1723531;81;20914;-58
2021/07/01 07:10:44;;;;;;;3.72;2.90;;;;;;;24.65;65.16;99002.67;1721795;81;20935;-56
2021/07/01 07:13:11;;;;;;;10.88;4.47;;;;;;;24.65;65.04;98995.28;1730645;81;21054;-56
2021/07/01 07:15:38;;;;;;;5.47;3.92;;;;;;;24.68;65.33;98998.16;1724207;81;22124;-56
2021/07/01 07:18:22;;;;;;;6.05;3.55;;;;;;;24.70;65.61;98987.31;1725115;81;21383;-56
2021/07/01 07:21:01;;;;;;;5.50;3.95;;;;;;;24.75;65.65;98986.79;1725305;81;21090;-56
2021/07/01 07:23:35;;;;;;;5.60;3.15;;;;;;;24.81;65.65;98981.41;1722947;81;21037;-56
2021/07/01 07:26:18;;;;;;;4.15;3.85;;;;;;;24.88;66.01;98974.64;1730535;81;21441;-57
2021/07/01 07:28:51;;;;;;;11.93;4.28;;;;;;;24.97;65.72;98974.09;1724344;81;21452;-57
2021/07/01 07:31:25;;;;;;;5.67;3.80;;;;;;;25.07;65.73;98980.20;1726196;81;21062;-57
2021/07/01 07:33:56;;;;;;;4.33;3.92;;;;;;;25.17;65.14;98971.17;1726428;81;21503;-57
2021/07/01 07:36:24;;;;;;;4.33;3.92;;;;;;;25.27;64.68;98968.98;1725770;81;21631;-56
2021/07/01 07:38:52;;;;;;;3.50;2.70;;;;;;;25.36;63.94;98968.39;1682548;83;21512;-57
2021/07/01 07:41:18;;;;;;;4.33;3.25;;;;;;;25.44;63.25;98965.03;1721258;81;21109;-56
2021/07/01 07:43:46;;;;;;;5.78;1.95;;;;;;;25.53;63.36;98959.78;1680432;83;21048;-57
2021/07/01 07:46:12;;;;;;;3.47;2.55;;;;;;;25.61;62.88;98956.11;1726490;81;21125;-56
2021/07/01 07:48:39;;;;;;;2.42;1.75;;;;;;;25.72;62.66;98953.41;1723265;81;21085;-56
2021/07/01 07:51:05;;;;;;;3.40;1.80;;;;;;;25.83;61.66;98945.54;1724341;81;21050;-56
2021/07/01 07:53:33;;;;;;;1.95;1.32;;;;;;;25.92;61.49;98936.13;1679020;83;22986;-56
2021/07/01 07:56:05;;;;;;;4.00;1.35;;;;;;;25.99;59.58;98940.34;1725387;82;21026;-54
2021/07/01 07:58:38;;;;;;;2.40;1.32;;;;;;;26.08;58.87;98939.71;1698726;81;21358;-56
2021/07/01 08:01:04;;;;;;;1.85;1.42;;;;;;;26.16;58.36;98941.84;1679768;83;20967;-56
2021/07/01 08:03:32;;;;;;;3.17;1.50;;;;;;;26.21;56.89;98939.34;1723997;81;21496;-56
2021/07/01 08:06:01;;;;;;;3.22;1.60;;;;;;;26.20;56.08;98936.25;1725107;81;21179;-56
2021/07/01 08:08:30;;;;;;;1.47;1.22;;;;;;;26.21;56.68;98942.10;1726209;81;20919;-55
2021/07/01 08:10:59;;;;;;;5.53;1.62;;;;;;;26.28;56.62;98945.86;1721361;81;21120;-57
2021/07/01 08:13:29;;;;;;;4.37;1.42;;;;;;;26.36;56.11;98947.64;1720594;81;21408;-57
2021/07/01 08:15:56;;;;;;;2.62;1.45;;;;;;;26.43;56.06;98948.58;1679008;83;20967;-57
2021/07/01 08:18:36;;;;;;;2.60;0.93;;;;;;;26.52;55.55;98947.93;1660273;84;21090;-57
2021/07/01 08:21:01;;;;;;;2.62;0.95;;;;;;;26.58;54.11;98942.48;1675269;83;21488;-54
2021/07/01 08:23:27;;;;;;;2.17;0.80;;;;;;;26.66;53.80;98940.11;1720670;82;22101;-56
2021/07/01 08:25:54;;;;;;;2.50;0.90;;;;;;;26.73;52.77;98934.13;1723138;81;21077;-57
2021/07/01 08:28:21;;;;;;;2.72;0.98;;;;;;;26.78;53.12;98930.80;1719766;82;21770;-58
2021/07/01 08:30:48;;;;;;;1.37;0.90;;;;;;;26.86;53.34;98938.42;1724964;82;21100;-54
2021/07/01 08:33:19;;;;;;;2.67;1.12;;;;;;;26.94;53.19;98930.03;1726553;82;20918;-55
2021/07/01 08:35:50;;;;;;;4.30;0.80;;;;;;;26.99;52.56;98944.61;1724886;82;20978;-57
2021/07/01 08:38:16;;;;;;;1.30;0.80;;;;;;;27.02;52.29;98929.89;1722340;82;21093;-57
2021/07/01 08:40:44;;;;;;;6.25;0.88;;;;;;;27.09;52.16;98934.95;1720374;81;21129;-54
2021/07/01 08:43:11;;;;;;;3.27;0.80;;;;;;;27.15;51.69;98937.42;1720328;81;21092;-56
2021/07/01 08:45:42;;;;;;;4.12;1.87;;;;;;;27.21;50.90;98934.41;1674646;83;21094;-55
2021/07/01 08:48:24;;;;;;;2.52;0.85;;;;;;;27.23;51.38;98941.42;1723652;82;21066;-57
2021/07/01 08:50:55;;;;;;;1.35;0.95;;;;;;;27.26;51.12;98933.27;1720151;81;21065;-57
2021/07/01 08:53:51;;;;;;;2.08;1.05;;;;;;;27.32;51.78;98936.08;1716735;81;21548;-57
2021/07/01 08:56:18;;;;;;;3.67;1.00;;;;;;;27.40;51.51;98939.22;1648024;85;21100;-54
2021/07/01 08:58:48;;;;;;;2.12;1.00;;;;;;;27.50;51.75;98943.88;1721064;81;22083;-56
2021/07/01 09:01:22;;;;;;;1.00;0.90;;;;;;;27.58;51.42;98947.05;1722691;81;21099;-57
2021/07/01 09:03:47;;;;;;;2.10;1.05;;;;;;;27.62;51.67;98938.69;1715343;81;21554;-56
2021/07/01 09:06:19;;;;;;;1.62;1.00;;;;;;;27.69;52.08;98945.11;1714553;81;21046;-57
2021/07/01 09:08:48;;;;;;;5.37;1.20;;;;;;;27.74;51.84;98943.43;1722290;81;21058;-57
2021/07/01 09:11:17;;;;;;;2.72;1.22;;;;;;;27.81;51.45;98938.82;1702476;82;20998;-55
2021/07/01 09:13:49;;;;;;;2.40;1.20;;;;;;;27.89;52.27;98932.80;1719537;81;21954;-55
2021/07/01 09:16:15;;;;;;;2.85;1.00;;;;;;;27.94;51.91;98935.26;1683302;83;20967;-58
2021/07/01 09:18:45;;;;;;;6.28;1.35;;;;;;;28.00;51.58;98929.42;1726876;81;20920;-56
2021/07/01 09:21:13;;;;;;;4.90;1.20;;;;;;;28.06;52.05;98928.63;1683731;83;21149;-57
2021/07/01 09:23:45;;;;;;;5.83;1.30;;;;;;;28.13;52.30;98934.52;1715509;81;21599;-57
2021/07/01 09:26:10;;;;;;;1.95;1.00;;;;;;;28.18;51.70;98929.23;1718834;81;21089;-56
2021/07/01 09:28:37;;;;;;;2.55;1.30;;;;;;;28.23;51.19;98931.40;1718645;81;21116;-57
2021/07/01 09:31:03;;;;;;;2.27;1.10;;;;;;;28.28;51.62;98931.62;1720623;81;21050;-58
2021/07/01 09:33:30;;;;;;;2.67;1.20;;;;;;;28.33;50.54;98932.40;1711817;82;22400;-56
2021/07/01 09:35:57;;;;;;;1.32;1.15;;;;;;;28.37;50.47;98923.98;1720744;81;21620;-59
2021/07/01 09:38:23;;;;;;;4.58;1.17;;;;;;;28.40;50.41;98921.67;1724448;81;20990;-56
2021/07/01 09:40:50;;;;;;;1.85;1.00;;;;;;;28.45;51.49;98921.88;1718705;81;21097;-56
2021/07/01 09:43:17;;;;;;;2.67;1.42;;;;;;;28.49;51.24;98920.42;1679235;83;21018;-58
2021/07/01 09:45:43;;;;;;;4.28;1.07;;;;;;;28.53;50.99;98913.92;1694975;81;21086;-56
2021/07/01 09:48:10;;;;;;;5.20;1.40;;;;;;;28.57;51.22;98913.84;1715968;81;21042;-55
2021/07/01 09:50:45;;;;;;;2.87;0.98;;;;;;;28.60;50.55;98910.63;1718023;81;21038;-58
2021/07/01 09:53:26;;;;;;;4.10;0.98;;;;;;;28.59;50.20;98912.55;1723936;81;21357;-57
2021/07/01 09:55:53;;;;;;;14.13;1.72;;;;;;;28.61;49.93;98900.73;1719953;82;21516;-55
2021/07/01 09:58:20;;;;;;;6.33;0.93;;;;;;;28.64;49.68;98913.84;1721000;82;22095;-55
2021/07/01 10:00:52;;;;;;;1.20;0.80;;;;;;;28.68;48.84;98904.04;1719634;81;21349;-55
2021/07/01 10:03:19;;;;;;;3.02;0.95;;;;;;;28.72;48.79;98899.80;1719514;81;20864;-56
2021/07/01 10:05:45;;;;;;;2.02;0.70;;;;;;;28.75;48.22;98905.75;1663302;83;20984;-57
2021/07/01 10:08:12;;;;;;;1.17;0.90;;;;;;;28.79;48.18;98895.16;1720543;81;21404;-56
2021/07/01 10:10:49;;;;;;;1.60;0.80;;;;;;;28.82;48.69;98896.13;1719421;81;22190;-57
2021/07/01 10:13:15;;;;;;;1.80;1.00;;;;;;;28.85;48.80;98891.53;1718562;81;21017;-56
2021/07/01 10:15:42;;;;;;;3.92;0.78;;;;;;;28.88;48.47;98885.05;1669418;83;21066;-58
2021/07/01 10:18:27;;;;;;;7.33;0.75;;;;;;;28.92;48.56;98883.54;1717482;81;21329;-57
2021/07/01 10:20:57;;;;;;;2.62;0.70;;;;;;;28.96;49.08;98880.69;1715357;81;21597;-56
2021/07/01 10:23:29;;;;;;;4.42;0.70;;;;;;;29.01;48.54;98880.03;1716149;81;21182;-57
2021/07/01 10:26:14;;;;;;;1.80;0.75;;;;;;;29.08;47.84;98887.83;1714388;81;21785;-57
2021/07/01 10:28:40;;;;;;;2.87;0.70;;;;;;;29.13;46.52;98875.56;1717694;81;21540;-56
2021/07/01 10:31:11;;;;;;;1.27;0.70;;;;;;;29.20;47.01;98876.41;1717456;81;21042;-59
2021/07/01 10:33:41;;;;;;;1.07;0.70;;;;;;;29.25;47.44;98871.09;1717728;81;21663;-56
2021/07/01 10:36:25;;;;;;;6.60;0.80;;;;;;;29.32;47.83;98880.78;1722911;82;21047;-57
2021/07/01 10:38:52;;;;;;;4.53;1.77;;;;;;;29.38;47.47;98871.63;1717389;81;21074;-57
2021/07/01 10:41:33;;;;;;;1.32;0.70;;;;;;;29.43;47.68;98872.38;1678858;83;21082;-57
2021/07/01 10:44:01;;;;;;;0.95;0.72;;;;;;;29.45;46.33;98872.99;1721101;81;21172;-59
2021/07/01 10:46:47;;;;;;;6.45;1.32;;;;;;;29.46;46.12;98869.16;1718045;81;21175;-57
2021/07/01 10:49:15;;;;;;;1.37;0.60;;;;;;;29.46;46.62;98867.24;1721593;81;21126;-58
2021/07/01 10:51:56;;;;;;;1.42;0.60;;;;;;;29.45;45.14;98872.46;1717355;81;21101;-57
2021/07/01 10:54:23;;;;;;;2.08;0.57;;;;;;;29.44;44.25;98868.52;1718474;81;21042;-57
2021/07/01 10:56:51;;;;;;;4.08;0.60;;;;;;;29.41;44.36;98873.98;1721655;81;21085;-53
2021/07/01 10:59:18;;;;;;;4.08;0.50;;;;;;;29.37;43.75;98871.30;1721073;81;21100;-58
2021/07/01 11:01:45;;;;;;;3.55;0.60;;;;;;;29.33;43.90;98872.79;1697179;81;21335;-57
2021/07/01 11:04:17;;;;;;;1.65;0.50;;;;;;;29.31;44.51;98867.98;1720350;81;21356;-57
2021/07/01 11:06:46;;;;;;;2.02;0.60;;;;;;;29.31;44.86;98869.38;1722732;81;21215;-57
2021/07/01 11:09:15;;;;;;;2.42;0.80;;;;;;;29.31;45.05;98870.22;1710886;81;21062;-57
2021/07/01 11:11:42;;;;;;;1.02;0.57;;;;;;;29.34;44.97;98875.88;1725003;81;21049;-59
2021/07/01 11:14:11;;;;;;;3.75;0.65;;;;;;;29.37;45.25;98869.92;1724871;81;21737;-55
2021/07/01 11:16:47;;;;;;;1.40;0.60;;;;;;;29.41;45.31;98870.35;1726187;81;21047;-57
2021/07/01 11:19:17;;;;;;;1.70;0.50;;;;;;;29.42;45.38;98871.53;1720755;81;21052;-55
2021/07/01 11:21:52;;;;;;;2.98;0.80;;;;;;;29.42;45.50;98876.22;1721501;81;21306;-58
2021/07/01 11:24:24;;;;;;;13.15;0.80;;;;;;;29.42;45.70;98880.37;1718595;81;21053;-58
2021/07/01 11:26:59;;;;;;;2.30;0.60;;;;;;;29.41;45.33;98885.06;1713788;81;21115;-57
2021/07/01 11:29:44;;;;;;;3.20;0.60;;;;;;;29.40;45.36;98879.20;1722767;81;21065;-59
2021/07/01 11:32:28;;;;;;;3.33;0.95;;;;;;;29.39;45.55;98878.02;1719304;81;20957;-57
2021/07/01 11:34:55;;;;;;;3.52;0.60;;;;;;;29.38;45.07;98879.09;1718792;81;20986;-58
2021/07/01 11:37:35;;;;;;;1.82;0.70;;;;;;;29.37;44.26;98877.38;1722474;81;21071;-56
2021/07/01 11:40:19;;;;;;;1.30;0.60;;;;;;;29.39;44.60;98876.64;1720107;81;21718;-56
2021/07/01 11:42:50;;;;;;;0.60;0.50;;;;;;;29.44;45.06;98871.28;1720993;81;20929;-55
2021/07/01 11:45:16;;;;;;;3.50;0.68;;;;;;;29.49;44.88;98870.12;1726746;81;21047;-57
2021/07/01 11:47:43;;;;;;;1.22;0.60;;;;;;;29.54;45.05;98868.92;1724078;81;21059;-55
2021/07/01 11:50:10;;;;;;;3.12;0.68;;;;;;;29.59;44.47;98855.28;1723871;81;21081;-57